Time;durP1;ratioP1;P1;durP2;ratioP2;P2;SDS_P1;SDS_P2;PMS_P1;PMS_P2;Temp;Humidity;BMP_temperature;BMP_pressure;BME280_temperature;BME280_humidity;BME280_pressure;Samples;Min_cycle;Max_cycle;Signal;HPM_P1;HPM_P2
2021/11/09 00:00:51;;;;;;;29.13;18.73;;;;;;;5.75;87.81;96299.95;1766117;81;21015;-68
2021/11/09 00:03:19;;;;;;;30.10;17.83;;;;;;;5.68;87.30;96294.64;1766068;81;21022;-68
2021/11/09 00:06:31;;;;;;;27.17;18.40;;;;;;;5.67;87.52;96284.60;1766101;81;21504;-68
2021/11/09 00:08:22;;;;;;;34.40;19.30;;;;;;;5.74;87.26;96285.53;1742254;81;21010;-68
2021/11/09 00:10:48;;;;;;;29.70;18.57;;;;;;;5.76;87.30;96280.76;1766000;81;21094;-68
2021/11/09 00:13:16;;;;;;;29.27;17.20;;;;;;;5.80;87.27;96278.63;1766314;81;21013;-68
2021/11/09 00:15:43;;;;;;;28.57;17.80;;;;;;;5.81;86.95;96281.69;1765978;81;21026;-68
2021/11/09 00:18:11;;;;;;;33.17;20.37;;;;;;;5.78;86.51;96279.48;1765985;81;21103;-68
2021/11/09 00:20:40;;;;;;;31.10;18.20;;;;;;;5.69;86.16;96278.92;1766223;81;21026;-68
2021/11/09 00:23:09;;;;;;;31.77;18.67;;;;;;;5.61;86.38;96277.53;1766061;81;21089;-68
2021/11/09 00:25:39;;;;;;;29.97;19.10;;;;;;;5.59;86.63;96279.69;1766302;81;20971;-68
2021/11/09 00:28:07;;;;;;;32.77;19.10;;;;;;;5.71;87.14;96281.58;1766277;81;21021;-68
2021/11/09 00:30:35;;;;;;;31.63;18.20;;;;;;;5.67;86.26;96276.75;1766312;81;20972;-68
2021/11/09 00:33:03;;;;;;;26.70;17.67;;;;;;;5.56;85.92;96279.22;1766396;81;21570;-68
2021/11/09 00:35:32;;;;;;;31.57;18.27;;;;;;;5.48;86.02;96275.64;1766336;81;21067;-68
2021/11/09 00:38:03;;;;;;;32.67;19.93;;;;;;;5.44;86.25;96265.98;1765640;81;21097;-68
2021/11/09 00:40:34;;;;;;;30.63;17.40;;;;;;;5.36;86.69;96268.50;1766386;81;20991;-68
2021/11/09 00:43:02;;;;;;;28.90;18.83;;;;;;;5.42;87.07;96269.91;1766406;81;21042;-68
2021/11/09 00:45:30;;;;;;;28.33;18.93;;;;;;;5.46;87.41;96268.63;1766168;81;20986;-68
2021/11/09 00:47:57;;;;;;;29.53;19.17;;;;;;;5.55;87.67;96259.15;1766318;81;21101;-68
2021/11/09 00:50:26;;;;;;;29.60;18.50;;;;;;;5.61;87.47;96259.64;1765945;81;21069;-68
2021/11/09 00:52:54;;;;;;;31.37;19.70;;;;;;;5.56;86.56;96271.36;1766167;81;20970;-67
2021/11/09 00:55:21;;;;;;;33.37;19.17;;;;;;;5.50;86.76;96276.54;1766080;81;21098;-68
2021/11/09 00:57:51;;;;;;;31.30;17.87;;;;;;;5.50;86.81;96278.28;1766244;81;21049;-68
2021/11/09 01:00:23;;;;;;;26.37;15.27;;;;;;;5.43;86.60;96279.94;1766422;81;21548;-68
2021/11/09 01:02:50;;;;;;;24.20;16.30;;;;;;;5.28;86.35;96279.31;1766402;81;20989;-68
2021/11/09 01:05:22;;;;;;;25.43;16.30;;;;;;;5.14;86.92;96280.86;1766138;81;21022;-68
2021/11/09 01:07:57;;;;;;;24.67;15.13;;;;;;;5.11;86.74;96277.77;1765631;81;21027;-68
2021/11/09 01:10:31;;;;;;;24.33;14.90;;;;;;;5.09;86.76;96283.44;1762444;81;21079;-68
2021/11/09 01:12:58;;;;;;;23.37;14.73;;;;;;;5.04;87.22;96280.28;1762615;81;21018;-68
2021/11/09 01:15:27;;;;;;;23.20;13.03;;;;;;;4.95;87.82;96278.00;1762199;81;21588;-68
2021/11/09 01:17:55;;;;;;;21.93;12.90;;;;;;;4.87;87.76;96277.02;1762709;81;21520;-68
2021/11/09 01:20:26;;;;;;;28.40;15.90;;;;;;;4.83;87.88;96274.33;1762496;81;21070;-68
2021/11/09 01:22:56;;;;;;;27.03;15.47;;;;;;;4.77;88.20;96276.00;1762532;81;21020;-68
2021/11/09 01:25:26;;;;;;;20.43;12.37;;;;;;;4.78;88.12;96287.33;1762455;81;21516;-68
2021/11/09 01:27:54;;;;;;;18.43;11.43;;;;;;;4.78;88.40;96287.33;1762615;81;20991;-68
2021/11/09 01:30:20;;;;;;;25.20;15.00;;;;;;;4.71;88.55;96286.38;1762538;81;21453;-67
2021/11/09 01:32:50;;;;;;;29.93;17.07;;;;;;;4.67;88.68;96296.33;1762325;81;21003;-68
2021/11/09 01:35:17;;;;;;;28.83;17.50;;;;;;;4.68;88.67;96288.92;1762557;81;21134;-68
2021/11/09 01:37:45;;;;;;;31.53;17.90;;;;;;;4.67;88.75;96288.92;1762263;81;20998;-68
2021/11/09 01:40:13;;;;;;;35.20;20.00;;;;;;;4.63;88.69;96282.75;1728321;81;21113;-68
2021/11/09 01:42:39;;;;;;;35.47;20.20;;;;;;;4.59;88.55;96285.31;1762600;81;21080;-68
2021/11/09 01:45:11;;;;;;;34.83;18.90;;;;;;;4.55;88.61;96292.21;1762183;81;21125;-68
2021/11/09 01:47:39;;;;;;;26.70;15.20;;;;;;;4.54;88.55;96299.17;1762220;81;21049;-68
2021/11/09 01:50:09;;;;;;;23.27;13.90;;;;;;;4.53;88.69;96297.84;1753145;81;21049;-68
2021/11/09 01:52:37;;;;;;;24.43;12.60;;;;;;;4.53;88.72;96296.09;1762695;81;21504;-68
2021/11/09 01:55:11;;;;;;;23.37;12.63;;;;;;;4.58;88.68;96300.53;1762244;81;21126;-68
2021/11/09 01:57:39;;;;;;;24.97;14.70;;;;;;;4.55;88.34;96301.36;1762449;81;21053;-68
2021/11/09 02:00:17;;;;;;;27.00;16.70;;;;;;;4.53;88.58;96289.56;1762561;81;21002;-68
2021/11/09 02:02:43;;;;;;;29.87;16.53;;;;;;;4.55;88.54;96280.45;1762539;80;21086;-68
2021/11/09 02:05:12;;;;;;;36.27;18.60;;;;;;;4.49;88.64;96285.59;1762778;81;20986;-68
2021/11/09 02:07:52;;;;;;;30.63;18.60;;;;;;;4.44;88.79;96292.48;1762684;81;21017;-67
2021/11/09 02:10:23;;;;;;;23.23;15.30;;;;;;;4.44;88.85;96295.09;1766271;81;20982;-68
2021/11/09 02:12:50;;;;;;;23.00;14.03;;;;;;;4.50;89.17;96289.52;1766399;81;20983;-68
2021/11/09 02:15:17;;;;;;;25.43;14.90;;;;;;;4.57;89.06;96287.89;1765991;81;21085;-67
2021/11/09 02:17:48;;;;;;;30.77;17.23;;;;;;;4.61;88.99;96283.58;1766065;81;21054;-68
2021/11/09 02:20:19;;;;;;;31.37;16.00;;;;;;;4.59;88.69;96292.72;1766522;81;21106;-68
2021/11/09 02:22:47;;;;;;;20.30;12.40;;;;;;;4.57;88.33;96304.01;1766498;81;21481;-68
2021/11/09 02:25:18;;;;;;;27.77;14.73;;;;;;;4.54;88.79;96308.33;1766486;81;21014;-68
2021/11/09 02:27:45;;;;;;;22.53;13.93;;;;;;;4.64;89.04;96292.37;1766409;81;21151;-68
2021/11/09 02:30:16;;;;;;;24.00;14.70;;;;;;;4.69;88.84;96288.09;1766385;81;21098;-68
2021/11/09 02:32:43;;;;;;;20.30;12.10;;;;;;;4.77;89.00;96294.73;1766495;81;21022;-68
2021/11/09 02:35:13;;;;;;;21.13;12.50;;;;;;;4.80;88.44;96303.05;1766060;81;20998;-68
2021/11/09 02:37:41;;;;;;;19.70;12.13;;;;;;;4.83;88.43;96316.17;1766140;81;21014;-68
2021/11/09 02:40:10;;;;;;;22.57;12.67;;;;;;;4.90;88.29;96314.09;1766045;81;21027;-68
2021/11/09 02:42:42;;;;;;;21.00;12.50;;;;;;;4.90;88.01;96311.48;1766570;81;21472;-68
2021/11/09 02:45:15;;;;;;;19.57;11.10;;;;;;;4.85;87.63;96308.80;1766250;81;20994;-68
2021/11/09 02:47:52;;;;;;;18.47;11.10;;;;;;;4.90;87.83;96321.51;1766068;81;20998;-68
2021/11/09 02:50:20;;;;;;;21.33;13.27;;;;;;;4.92;87.63;96327.65;1766294;81;21113;-68
2021/11/09 02:52:54;;;;;;;23.13;13.93;;;;;;;4.92;87.32;96332.01;1766111;81;21592;-68
2021/11/09 02:55:27;;;;;;;26.83;15.10;;;;;;;4.85;86.96;96328.41;1764816;81;21536;-68
2021/11/09 02:57:57;;;;;;;28.70;15.67;;;;;;;4.70;87.29;96329.05;1765489;81;21067;-68
2021/11/09 03:02:49;;;;;;;18.63;9.93;;;;;;;4.68;87.55;96316.80;1766288;81;21014;-68
2021/11/09 03:05:23;;;;;;;16.33;9.63;;;;;;;4.75;87.90;96304.28;1765637;81;21018;-68
2021/11/09 03:07:55;;;;;;;22.40;13.30;;;;;;;4.71;87.98;96303.38;1765307;81;21031;-68
2021/11/09 03:10:30;;;;;;;23.63;14.73;;;;;;;4.81;88.40;96300.88;1773397;81;21457;-68
2021/11/09 03:12:52;;;;;;;20.05;13.72;;;;;;;4.84;88.03;96295.28;1772926;81;21022;-68
2021/11/09 03:15:23;;;;;;;25.17;14.50;;;;;;;4.79;87.58;96283.88;1773921;81;20986;-68
2021/11/09 03:17:52;;;;;;;23.43;14.73;;;;;;;4.83;87.86;96289.59;1773770;81;21041;-68
2021/11/09 03:45:08;;;;;;;20.97;10.97;;;;;;;4.53;87.53;96327.89;1774156;81;21022;-68
2021/11/09 03:47:39;;;;;;;18.20;10.27;;;;;;;4.50;87.66;96342.22;1774110;81;20978;-68
2021/11/09 03:50:09;;;;;;;17.40;10.03;;;;;;;4.43;87.59;96341.66;1773981;81;20994;-68
2021/11/09 03:52:55;;;;;;;15.90;9.30;;;;;;;4.34;88.12;96326.72;1773897;81;21089;-68
2021/11/09 03:55:39;;;;;;;13.50;8.13;;;;;;;4.25;88.38;96328.72;1773170;81;21574;-68
2021/11/09 04:00:52;;;;;;;19.47;11.57;;;;;;;4.16;88.62;96332.50;1774175;81;21038;-68
2021/11/09 04:09:03;;;;;;;13.90;8.97;;;;;;;4.06;89.25;96345.81;1771837;81;21026;-68
2021/11/09 04:11:30;;;;;;;21.90;12.17;;;;;;;4.01;89.38;96339.62;1763891;81;21006;-68
2021/11/09 04:14:33;;;;;;;21.93;13.87;;;;;;;3.98;89.39;96333.44;1763437;81;21572;-68
2021/11/09 04:16:38;;;;;;;18.10;11.23;;;;;;;3.97;89.33;96328.66;1742271;81;21041;-68
2021/11/09 04:24:25;;;;;;;15.60;9.90;;;;;;;4.05;89.41;96353.17;1766423;81;20986;-68
2021/11/09 04:27:02;;;;;;;18.77;11.17;;;;;;;4.03;89.44;96369.66;1763291;81;21029;-68
2021/11/09 04:32:20;;;;;;;20.10;12.63;;;;;;;4.03;89.80;96367.05;1766346;81;21037;-68
2021/11/09 05:09:59;;;;;;;13.37;9.13;;;;;;;4.39;88.84;96403.45;1765826;81;21081;-68
2021/11/09 05:12:23;;;;;;;16.67;8.53;;;;;;;4.40;88.06;96413.46;1765703;81;21538;-68
2021/11/09 05:14:49;;;;;;;16.20;9.80;;;;;;;4.38;87.75;96408.20;1766194;81;21026;-68
2021/11/09 05:17:16;;;;;;;19.10;12.20;;;;;;;4.30;87.53;96408.05;1765814;81;21009;-66
2021/11/09 05:19:43;;;;;;;19.30;12.20;;;;;;;4.30;87.80;96403.27;1766327;81;21010;-68
2021/11/09 05:22:09;;;;;;;21.03;12.17;;;;;;;4.25;87.52;96411.01;1766225;81;21074;-68
2021/11/09 05:24:36;;;;;;;24.30;12.77;;;;;;;4.10;87.83;96419.42;1766275;81;21471;-68
2021/11/09 05:27:03;;;;;;;17.80;10.47;;;;;;;3.93;88.31;96417.33;1765979;81;21025;-68
2021/11/09 05:29:30;;;;;;;17.67;10.87;;;;;;;3.90;88.45;96426.86;1766267;81;21006;-68
2021/11/09 05:31:59;;;;;;;15.20;10.07;;;;;;;3.87;88.56;96432.02;1766175;81;21622;-68
2021/11/09 05:34:29;;;;;;;16.60;10.37;;;;;;;3.85;88.47;96445.46;1766077;81;21030;-68
2021/11/09 05:36:54;;;;;;;14.83;7.93;;;;;;;3.77;88.29;96457.91;1766184;81;21018;-68
2021/11/09 05:39:34;;;;;;;15.80;10.03;;;;;;;3.72;88.30;96462.15;1766325;81;20994;-67
2021/11/09 05:42:01;;;;;;;19.30;11.40;;;;;;;3.68;88.56;96463.39;1766149;81;21051;-68
2021/11/09 05:44:28;;;;;;;21.83;12.40;;;;;;;3.68;88.71;96469.05;1766317;81;21022;-68
2021/11/09 05:46:56;;;;;;;18.00;10.87;;;;;;;3.73;88.84;96493.91;1766045;81;20998;-68
2021/11/09 05:49:25;;;;;;;18.63;13.23;;;;;;;3.73;88.70;96494.82;1766395;81;21014;-67
2021/11/09 05:51:51;;;;;;;17.87;12.20;;;;;;;3.66;88.20;96508.14;1766333;81;21142;-68
2021/11/09 05:54:18;;;;;;;21.17;11.37;;;;;;;3.64;88.31;96509.83;1766226;81;21049;-68
2021/11/09 05:56:44;;;;;;;21.40;14.30;;;;;;;3.62;88.26;96520.66;1766013;81;21014;-68
2021/11/09 05:59:11;;;;;;;23.70;13.37;;;;;;;3.58;88.48;96519.23;1766061;81;21098;-68
2021/11/09 06:01:37;;;;;;;19.63;12.37;;;;;;;3.54;87.99;96532.65;1766241;81;21101;-68
2021/11/09 06:04:04;;;;;;;18.33;11.40;;;;;;;3.50;88.03;96539.94;1766319;81;21019;-68
2021/11/09 06:06:31;;;;;;;21.23;11.70;;;;;;;3.56;88.32;96555.75;1766128;81;21106;-67
2021/11/09 06:08:57;;;;;;;22.17;13.63;;;;;;;3.62;88.57;96561.10;1766256;81;21050;-68
2021/11/09 06:11:24;;;;;;;24.00;13.40;;;;;;;3.69;88.97;96560.41;1766377;81;20999;-67
2021/11/09 06:13:50;;;;;;;22.17;14.00;;;;;;;3.77;88.86;96556.67;1766267;81;21002;-68
2021/11/09 06:16:17;;;;;;;24.93;16.47;;;;;;;3.89;89.00;96561.30;1766458;81;21085;-67
2021/11/09 06:18:44;;;;;;;29.80;17.30;;;;;;;3.95;88.94;96561.42;1766286;81;21061;-68
2021/11/09 06:21:10;;;;;;;24.70;16.40;;;;;;;4.06;89.01;96573.02;1766435;81;21095;-68
2021/11/09 06:23:37;;;;;;;26.03;16.57;;;;;;;4.17;88.99;96572.36;1766341;81;21002;-68
2021/11/09 06:26:04;;;;;;;26.33;16.23;;;;;;;4.27;88.84;96583.47;1765966;81;21106;-67
2021/11/09 06:28:31;;;;;;;27.77;16.70;;;;;;;4.27;88.33;96593.48;1766213;81;21053;-68
2021/11/09 06:30:58;;;;;;;27.87;16.73;;;;;;;4.27;88.27;96598.71;1766179;81;21584;-68
2021/11/09 06:33:25;;;;;;;25.30;15.50;;;;;;;4.38;88.77;96608.08;1766097;81;21026;-68
2021/11/09 06:35:52;;;;;;;29.90;16.43;;;;;;;4.42;88.11;96603.39;1766193;81;21062;-68
2021/11/09 06:38:20;;;;;;;25.70;15.73;;;;;;;4.41;87.74;96609.87;1766038;81;21500;-68
2021/11/09 06:40:47;;;;;;;28.17;17.53;;;;;;;4.46;88.14;96612.16;1766198;81;21160;-68
2021/11/09 06:43:14;;;;;;;35.50;19.40;;;;;;;4.49;88.23;96613.12;1766204;81;21018;-68
2021/11/09 06:45:41;;;;;;;30.60;18.17;;;;;;;4.59;88.20;96614.64;1766452;81;21090;-68
2021/11/09 06:48:08;;;;;;;31.07;18.53;;;;;;;4.64;88.06;96617.80;1766108;81;21116;-68
2021/11/09 06:50:35;;;;;;;35.17;20.03;;;;;;;4.70;87.96;96631.42;1766210;81;21010;-68
2021/11/09 06:53:03;;;;;;;35.67;19.53;;;;;;;4.73;87.61;96629.73;1766090;81;21095;-68
2021/11/09 06:55:30;;;;;;;34.00;19.23;;;;;;;4.68;87.45;96636.59;1766057;81;21053;-67
2021/11/09 06:57:57;;;;;;;28.30;16.47;;;;;;;4.78;87.91;96641.59;1766155;81;21065;-68
2021/11/09 07:00:24;;;;;;;28.17;15.17;;;;;;;4.87;87.87;96642.23;1766050;81;21009;-68
2021/11/09 07:02:51;;;;;;;28.03;15.83;;;;;;;4.93;87.23;96646.27;1766335;81;21116;-68
2021/11/09 07:05:19;;;;;;;24.10;13.33;;;;;;;4.97;86.96;96652.02;1766259;81;21014;-68
2021/11/09 07:07:46;;;;;;;23.90;14.93;;;;;;;4.99;86.72;96662.09;1766352;81;21086;-68
2021/11/09 07:10:13;;;;;;;30.73;17.43;;;;;;;5.03;86.74;96655.18;1765941;81;21098;-68
2021/11/09 07:12:41;;;;;;;26.33;16.57;;;;;;;5.09;86.84;96656.20;1765875;81;21176;-68
2021/11/09 07:15:09;;;;;;;29.33;17.27;;;;;;;5.18;86.66;96668.56;1766395;81;21009;-68
2021/11/09 07:17:39;;;;;;;33.00;20.00;;;;;;;5.21;86.46;96672.54;1766281;81;21082;-68
2021/11/09 07:20:14;;;;;;;36.07;21.73;;;;;;;5.24;86.28;96673.94;1766418;81;21002;-68
2021/11/09 07:22:41;;;;;;;37.20;23.03;;;;;;;5.18;85.77;96672.05;1766109;81;21042;-68
2021/11/09 07:25:10;;;;;;;47.70;27.27;;;;;;;5.14;85.70;96682.02;1766135;81;21010;-68
2021/11/09 07:27:40;;;;;;;30.20;18.30;;;;;;;5.16;85.86;96685.52;1766215;81;21090;-68
2021/11/09 07:30:11;;;;;;;29.23;17.40;;;;;;;5.21;85.91;96677.77;1766358;81;21014;-68
2021/11/09 07:32:38;;;;;;;27.93;16.97;;;;;;;5.26;85.75;96677.43;1766337;81;21056;-68
2021/11/09 07:35:09;;;;;;;41.07;22.57;;;;;;;5.34;86.00;96676.27;1766284;81;21011;-68
2021/11/09 07:37:36;;;;;;;33.00;21.13;;;;;;;5.42;85.94;96673.39;1766317;81;21612;-67
2021/11/09 07:40:05;;;;;;;29.87;17.00;;;;;;;5.53;85.92;96678.82;1766034;81;21046;-68
2021/11/09 07:42:32;;;;;;;30.53;17.87;;;;;;;5.55;84.96;96677.99;1766208;81;21114;-68
2021/11/09 07:44:59;;;;;;;26.60;15.97;;;;;;;5.55;84.21;96674.06;1766171;81;21082;-68
2021/11/09 07:47:27;;;;;;;31.50;17.03;;;;;;;5.68;84.95;96676.48;1766066;81;21535;-68
2021/11/09 07:49:54;;;;;;;25.27;15.57;;;;;;;5.75;84.40;96684.02;1766341;81;20986;-68
2021/11/09 07:52:21;;;;;;;28.30;15.03;;;;;;;5.78;83.51;96681.45;1766035;81;21097;-68
2021/11/09 07:54:49;;;;;;;26.00;15.20;;;;;;;5.83;83.84;96688.53;1766289;81;21021;-68
2021/11/09 07:57:16;;;;;;;29.30;16.23;;;;;;;5.84;83.95;96691.59;1766290;81;21086;-68
2021/11/09 08:02:33;;;;;;;27.03;14.97;;;;;;;5.88;83.36;96691.66;1766020;81;21097;-68
2021/11/09 08:05:01;;;;;;;32.00;15.95;;;;;;;5.94;83.64;96698.34;1765933;81;21038;-68
2021/11/09 08:07:30;;;;;;;30.07;16.73;;;;;;;6.07;83.49;96701.61;1735515;81;21031;-68
2021/11/09 08:09:53;;;;;;;32.43;17.60;;;;;;;6.23;83.87;96715.44;1765383;81;21062;-68
2021/11/09 08:12:19;;;;;;;28.30;16.17;;;;;;;6.28;82.92;96716.39;1765897;81;21034;-68
2021/11/09 08:14:46;;;;;;;26.87;15.53;;;;;;;6.35;81.73;96717.38;1766257;81;21006;-68
2021/11/09 08:17:15;;;;;;;26.37;14.43;;;;;;;6.38;81.59;96721.35;1765967;81;21528;-68
2021/11/09 08:19:41;;;;;;;23.73;12.27;;;;;;;6.42;81.16;96721.83;1766069;81;21608;-67
2021/11/09 08:22:09;;;;;;;24.30;14.37;;;;;;;6.49;81.63;96725.01;1766255;81;20986;-68
2021/11/09 08:24:36;;;;;;;23.80;13.57;;;;;;;6.56;81.42;96713.32;1766047;81;21034;-68
2021/11/09 08:27:06;;;;;;;31.97;18.07;;;;;;;6.65;81.72;96719.59;1766129;81;21089;-67
2021/11/09 08:29:33;;;;;;;29.13;17.77;;;;;;;6.78;81.49;96723.67;1766582;81;20994;-68
2021/11/09 08:32:01;;;;;;;28.43;14.77;;;;;;;6.89;81.07;96720.78;1766250;81;21065;-68
2021/11/09 08:34:31;;;;;;;28.63;15.63;;;;;;;6.95;80.34;96720.85;1765892;81;21054;-68
2021/11/09 08:36:59;;;;;;;26.67;17.00;;;;;;;7.04;80.28;96717.05;1766393;81;21011;-68
2021/11/09 08:39:48;;;;;;;23.27;13.87;;;;;;;7.08;79.29;96729.77;1761113;81;21018;-68
2021/11/09 08:42:12;;;;;;;20.43;12.33;;;;;;;7.17;80.03;96725.09;1754011;81;21082;-68
2021/11/09 08:44:32;;;;;;;20.27;12.03;;;;;;;7.27;78.11;96732.22;1763076;81;21102;-68
2021/11/09 08:47:01;;;;;;;19.10;11.20;;;;;;;7.36;78.77;96736.28;1765815;81;21006;-68
2021/11/09 08:49:27;;;;;;;19.37;11.33;;;;;;;7.45;76.94;96736.37;1764587;81;21098;-68
2021/11/09 08:51:56;;;;;;;15.83;9.67;;;;;;;7.51;76.71;96745.66;1766356;81;21048;-68
2021/11/09 08:54:35;;;;;;;17.67;10.83;;;;;;;7.62;76.77;96740.95;1766252;81;21014;-68
2021/11/09 08:57:17;;;;;;;18.97;11.73;;;;;;;7.80;76.45;96749.02;1764597;81;21035;-68
2021/11/09 09:05:09;;;;;;;15.23;10.80;;;;;;;7.96;74.67;96750.96;1765994;81;21591;-69
2021/11/09 09:07:36;;;;;;;16.53;10.10;;;;;;;7.97;73.56;96753.15;1766287;81;21023;-69
2021/11/09 09:10:08;;;;;;;14.60;9.37;;;;;;;7.92;73.35;96761.42;1766094;81;21523;-68
2021/11/09 09:12:36;;;;;;;14.23;8.97;;;;;;;7.98;73.29;96762.34;1765862;81;21045;-68
2021/11/09 09:15:05;;;;;;;14.20;8.77;;;;;;;7.96;73.39;96760.56;1766261;81;21014;-68
2021/11/09 09:17:34;;;;;;;19.07;10.33;;;;;;;8.03;73.12;96767.66;1765758;81;20999;-68
2021/11/09 09:20:16;;;;;;;13.27;9.00;;;;;;;8.05;72.56;96775.13;1765951;81;21106;-68
2021/11/09 09:22:50;;;;;;;14.23;9.43;;;;;;;8.00;72.19;96775.08;1764374;81;21105;-69
2021/11/09 09:30:35;;;;;;;13.77;8.90;;;;;;;7.95;72.26;96782.47;1761265;81;21538;-68
2021/11/09 09:52:11;;;;;;;14.90;8.87;;;;;;;7.78;71.14;96791.47;1766023;81;21042;-68
2021/11/09 09:57:27;;;;;;;14.07;9.73;;;;;;;8.00;71.80;96803.98;1765786;81;21603;-68
2021/11/09 09:59:56;;;;;;;17.20;10.30;;;;;;;8.21;71.58;96798.50;1765962;81;20971;-68
2021/11/09 10:02:29;;;;;;;17.77;10.93;;;;;;;8.19;70.84;96806.83;1766187;81;21090;-68
2021/11/09 10:05:03;;;;;;;15.40;10.20;;;;;;;8.05;71.06;96810.61;1766489;81;21496;-68
2021/11/09 10:07:38;;;;;;;16.53;10.40;;;;;;;7.75;71.34;96811.14;1766328;81;21017;-68
2021/11/09 10:10:16;;;;;;;16.10;10.27;;;;;;;7.50;71.40;96825.28;1766084;81;21441;-68
2021/11/09 10:12:46;;;;;;;16.57;10.30;;;;;;;7.31;71.79;96832.05;1762241;81;21023;-68
2021/11/09 10:15:18;;;;;;;17.83;10.30;;;;;;;7.14;71.99;96847.54;1762448;81;21071;-68
2021/11/09 10:17:53;;;;;;;16.90;10.50;;;;;;;7.01;72.23;96853.91;1762473;81;21105;-69
2021/11/09 10:20:24;;;;;;;23.80;11.30;;;;;;;6.92;72.82;96846.32;1762404;81;21002;-69
2021/11/09 10:22:55;;;;;;;15.90;9.50;;;;;;;6.90;72.82;96850.69;1762628;81;21090;-69
2021/11/09 10:25:26;;;;;;;17.83;11.03;;;;;;;7.02;73.50;96851.72;1762660;81;21014;-69
2021/11/09 10:28:06;;;;;;;16.10;10.37;;;;;;;7.44;73.19;96851.47;1762104;81;21102;-68
2021/11/09 10:30:37;;;;;;;17.30;10.67;;;;;;;7.92;71.91;96845.52;1761815;81;21027;-68
2021/11/09 10:33:05;;;;;;;18.98;11.25;;;;;;;8.81;71.20;96846.44;1762274;81;21030;-69
2021/11/09 10:35:33;;;;;;;20.02;11.95;;;;;;;9.27;68.39;96846.77;1762541;81;21090;-69
2021/11/09 10:38:03;;;;;;;18.17;11.40;;;;;;;9.26;68.10;96846.34;1762777;81;21026;-69
2021/11/09 10:40:36;;;;;;;17.90;11.18;;;;;;;9.17;68.54;96856.39;1762537;81;21029;-69
2021/11/09 10:43:07;;;;;;;17.82;11.35;;;;;;;8.90;68.38;96857.05;1762434;81;21054;-69
2021/11/09 10:45:39;;;;;;;13.58;9.43;;;;;;;8.69;68.48;96860.36;1762870;81;21022;-68
2021/11/09 10:48:16;;;;;;;12.70;9.20;;;;;;;8.60;69.22;96866.88;1762573;81;21055;-68
2021/11/09 10:50:50;;;;;;;18.15;10.65;;;;;;;8.52;69.37;96871.19;1762328;81;21099;-68
2021/11/09 10:53:35;;;;;;;14.70;9.93;;;;;;;8.83;69.48;96877.16;1762473;81;21026;-69
2021/11/09 10:56:56;;;;;;;17.92;11.33;;;;;;;9.01;67.36;96876.87;1761356;81;21038;-68
2021/11/09 11:06:31;;;;;;;15.15;10.03;;;;;;;8.17;68.52;96888.30;1762304;81;21067;-68
2021/11/09 11:09:15;;;;;;;13.58;9.43;;;;;;;7.93;69.03;96886.25;1762932;81;21014;-68
2021/11/09 11:11:49;;;;;;;14.30;10.05;;;;;;;7.77;69.54;96894.38;1764045;81;21038;-68
2021/11/09 11:14:25;;;;;;;15.25;9.48;;;;;;;8.55;69.47;96897.07;1736143;81;21094;-68
2021/11/09 11:17:03;;;;;;;12.35;9.03;;;;;;;9.51;67.63;96889.52;1766352;81;21106;-69
2021/11/09 11:19:34;;;;;;;14.47;9.60;;;;;;;10.23;64.41;96888.98;1765355;81;21106;-68
2021/11/09 11:22:06;;;;;;;15.35;10.63;;;;;;;10.33;62.03;96900.04;1766390;81;21048;-69
2021/11/09 11:24:33;;;;;;;15.80;9.60;;;;;;;10.87;61.66;96900.19;1766481;81;21511;-70
2021/11/09 11:27:01;;;;;;;12.35;9.13;;;;;;;11.12;60.36;96908.56;1766393;81;21018;-65
2021/11/09 11:29:38;;;;;;;16.45;10.03;;;;;;;10.80;58.62;96910.72;1766202;81;21339;-69
2021/11/09 11:32:08;;;;;;;13.90;10.13;;;;;;;10.95;59.44;96916.91;1765111;81;21010;-69
2021/11/09 11:34:35;;;;;;;13.62;10.35;;;;;;;10.83;58.63;96915.13;1766539;81;21014;-68
2021/11/09 11:37:03;;;;;;;10.15;8.25;;;;;;;11.41;59.80;96913.82;1766300;81;21025;-69
2021/11/09 11:39:34;;;;;;;13.35;9.38;;;;;;;12.16;57.63;96904.01;1766106;81;21038;-69
2021/11/09 11:42:08;;;;;;;12.82;9.88;;;;;;;12.16;55.33;96906.66;1766632;81;21512;-68
2021/11/09 11:44:38;;;;;;;14.83;10.35;;;;;;;12.45;56.03;96910.06;1766241;81;21077;-69
2021/11/09 11:47:18;;;;;;;12.68;9.78;;;;;;;13.01;56.30;96897.36;1766390;81;20970;-69
2021/11/09 11:49:59;;;;;;;12.73;9.55;;;;;;;13.37;52.11;96901.51;1766341;81;21086;-69
2021/11/09 11:52:30;;;;;;;12.82;9.13;;;;;;;13.49;51.60;96914.23;1766258;81;20986;-69
2021/11/09 11:55:08;;;;;;;13.62;9.95;;;;;;;13.60;50.22;96911.91;1765898;81;21034;-69
2021/11/09 11:57:48;;;;;;;11.95;9.18;;;;;;;13.83;51.02;96918.34;1766044;81;21057;-69
2021/11/09 12:00:52;;;;;;;10.53;8.23;;;;;;;13.81;50.32;96917.92;1766347;81;20995;-69
2021/11/09 12:03:24;;;;;;;10.68;9.18;;;;;;;13.48;49.90;96931.02;1736318;81;20991;-69
2021/11/09 12:05:54;;;;;;;11.60;9.20;;;;;;;13.75;49.42;96922.81;1766060;81;21102;-70
2021/11/09 12:08:40;;;;;;;11.10;9.38;;;;;;;13.72;48.29;96929.48;1766442;81;21453;-70
2021/11/09 12:11:11;;;;;;;11.35;8.80;;;;;;;14.00;48.87;96934.52;1765648;81;21125;-71
2021/11/09 12:13:57;;;;;;;9.50;7.90;;;;;;;14.34;46.69;96927.06;1761861;81;21008;-70
2021/11/09 12:16:49;;;;;;;11.75;8.43;;;;;;;14.63;47.75;96933.80;1753277;81;21658;-69
2021/11/09 12:19:47;;;;;;;9.10;7.72;;;;;;;14.61;45.64;96944.44;1766158;81;21018;-69
2021/11/09 12:22:25;;;;;;;8.65;6.20;;;;;;;14.03;45.93;96947.74;1766041;81;21105;-70
2021/11/09 12:24:58;;;;;;;9.68;7.20;;;;;;;13.29;47.41;96952.39;1766286;81;21022;-69
2021/11/09 12:27:56;;;;;;;8.45;7.00;;;;;;;12.95;48.46;96952.60;1766209;81;20975;-68
2021/11/09 12:30:37;;;;;;;8.85;7.08;;;;;;;13.48;48.19;96954.47;1766213;81;21018;-69
2021/11/09 12:33:26;;;;;;;13.05;9.73;;;;;;;14.28;46.51;96948.35;1765369;81;21142;-68
2021/11/09 12:36:07;;;;;;;17.02;11.28;;;;;;;14.92;45.08;96953.35;1765447;81;21092;-69
2021/11/09 12:38:44;;;;;;;10.03;8.33;;;;;;;15.33;42.96;96952.72;1764833;81;21137;-68
2021/11/09 12:41:17;;;;;;;10.30;8.18;;;;;;;15.42;42.27;96954.38;1765495;81;20983;-70
2021/11/09 12:43:59;;;;;;;8.65;6.67;;;;;;;15.74;41.96;96945.00;1765629;81;21497;-69
2021/11/09 12:46:43;;;;;;;9.25;7.37;;;;;;;15.63;39.36;96958.45;1765716;81;21552;-69
2021/11/09 12:49:24;;;;;;;7.42;6.53;;;;;;;15.66;40.13;96966.38;1766171;81;20991;-70
2021/11/09 12:51:52;;;;;;;10.40;8.78;;;;;;;15.68;39.97;96963.25;1765800;81;21203;-70
2021/11/09 12:54:28;;;;;;;13.15;9.90;;;;;;;16.03;39.89;96954.23;1766138;81;21607;-70
2021/11/09 12:57:02;;;;;;;11.10;8.70;;;;;;;16.30;38.12;96967.49;1766004;81;21023;-70
2021/11/09 12:59:50;;;;;;;13.15;8.35;;;;;;;16.39;37.77;96972.19;1766141;81;21078;-70
2021/11/09 13:02:29;;;;;;;10.80;7.83;;;;;;;16.82;38.27;96971.34;1764643;81;21062;-69
2021/11/09 13:05:22;;;;;;;13.78;10.00;;;;;;;17.27;37.07;96971.25;1766804;81;21082;-70
2021/11/09 13:07:42;;;;;;;14.35;10.35;;;;;;;17.53;36.00;96976.42;1763819;81;21109;-69
2021/11/09 13:10:17;;;;;;;7.35;5.75;;;;;;;18.00;35.84;96974.87;1765968;81;21087;-69
2021/11/09 13:12:41;;;;;;;6.95;5.42;;;;;;;18.07;35.03;96974.67;1765728;81;21114;-69
2021/11/09 13:15:18;;;;;;;8.13;6.72;;;;;;;18.15;35.03;96975.80;1765751;81;21125;-69
2021/11/09 13:18:01;;;;;;;8.00;6.17;;;;;;;18.28;34.86;96981.69;1766280;81;21049;-69
2021/11/09 13:23:20;;;;;;;9.35;7.28;;;;;;;17.67;35.00;96993.45;1766348;81;21000;-69
2021/11/09 13:25:55;;;;;;;7.53;6.60;;;;;;;17.09;35.18;96999.67;1764726;81;21584;-69
2021/11/09 13:28:26;;;;;;;7.42;6.33;;;;;;;16.15;36.15;97009.50;1766206;81;20971;-70
2021/11/09 13:31:01;;;;;;;8.30;6.67;;;;;;;15.24;40.00;97019.78;1766386;81;21549;-69
2021/11/09 13:33:31;;;;;;;6.33;4.92;;;;;;;14.01;42.34;97022.08;1766301;81;20962;-69
2021/11/09 13:35:59;;;;;;;6.12;4.40;;;;;;;13.12;44.77;97029.31;1766125;81;21564;-69
2021/11/09 13:38:31;;;;;;;7.62;5.10;;;;;;;12.17;47.95;97034.99;1766189;81;21046;-69
2021/11/09 13:41:05;;;;;;;5.75;5.15;;;;;;;11.43;49.50;97032.31;1766586;81;21098;-69
2021/11/09 13:43:40;;;;;;;6.45;4.53;;;;;;;10.86;49.64;97030.02;1766045;81;20995;-69
2021/11/09 13:46:12;;;;;;;8.80;4.78;;;;;;;10.29;54.51;97044.70;1766266;81;21049;-69
2021/11/09 13:48:44;;;;;;;6.97;5.17;;;;;;;9.82;54.61;97050.49;1765113;81;21496;-69